Time;durP1;ratioP1;P1;durP2;ratioP2;P2;SDS_P1;SDS_P2;PMS_P1;PMS_P2;Temp;Humidity;BMP_temperature;BMP_pressure;BME280_temperature;BME280_humidity;BME280_pressure;Samples;Min_cycle;Max_cycle;Signal;HPM_P1;HPM_P2
2022/07/02 00:02:19;;;;;;;19.52;6.30;;;;;;;;;;5026737;28;20033;-70
2022/07/02 00:04:47;;;;;;;19.63;5.35;;;;;;;;;;5048410;28;20021;-70
2022/07/02 00:07:14;;;;;;;13.75;4.63;;;;;;;;;;5047415;28;20029;-70
2022/07/02 00:09:40;;;;;;;21.27;5.32;;;;;;;;;;5040254;28;20024;-71
2022/07/02 00:12:08;;;;;;;21.63;4.68;;;;;;;;;;5043681;28;20040;-71
2022/07/02 00:14:34;;;;;;;13.80;4.97;;;;;;;;;;5031133;28;20029;-70
2022/07/02 00:17:01;;;;;;;16.70;5.00;;;;;;;;;;5044719;28;20109;-71
2022/07/02 00:19:27;;;;;;;16.08;5.25;;;;;;;;;;5049466;28;20102;-71
2022/07/02 00:21:54;;;;;;;16.02;5.47;;;;;;;;;;5047997;28;20148;-71
2022/07/02 00:24:20;;;;;;;24.58;5.63;;;;;;;;;;5014308;28;20479;-71
2022/07/02 00:26:50;;;;;;;16.08;4.80;;;;;;;;;;5006884;28;20033;-71
2022/07/02 00:29:35;;;;;;;19.83;5.18;;;;;;;;;;5047720;28;20029;-71
2022/07/02 00:32:01;;;;;;;11.23;4.78;;;;;;;;;;5048267;28;20052;-70
2022/07/02 00:34:29;;;;;;;19.45;5.55;;;;;;;;;;5048744;28;20037;-71
2022/07/02 00:36:56;;;;;;;18.38;4.97;;;;;;;;;;5030367;28;20049;-70
2022/07/02 00:39:22;;;;;;;12.13;4.78;;;;;;;;;;5032610;28;20036;-70
2022/07/02 00:41:49;;;;;;;21.58;5.72;;;;;;;;;;5047089;28;20032;-70
2022/07/02 00:44:15;;;;;;;21.70;4.45;;;;;;;;;;5027705;28;20071;-71
2022/07/02 00:46:42;;;;;;;18.92;5.13;;;;;;;;;;5047952;28;20045;-71
2022/07/02 00:49:09;;;;;;;15.30;5.25;;;;;;;;;;5029069;28;20035;-71
2022/07/02 00:51:35;;;;;;;15.00;5.78;;;;;;;;;;5048717;28;20033;-71
2022/07/02 00:54:02;;;;;;;12.90;5.32;;;;;;;;;;5029864;28;20147;-71
2022/07/02 00:56:28;;;;;;;20.98;6.80;;;;;;;;;;5041834;28;20474;-70
2022/07/02 00:58:54;;;;;;;23.92;6.95;;;;;;;;;;5029588;28;20467;-69
2022/07/02 01:01:20;;;;;;;20.42;6.65;;;;;;;;;;5010464;28;20483;-71
2022/07/02 01:03:48;;;;;;;17.05;6.70;;;;;;;;;;5035099;28;20143;-70
2022/07/02 01:06:14;;;;;;;17.27;6.80;;;;;;;;;;5036780;28;20478;-71
2022/07/02 01:11:26;;;;;;;27.40;8.48;;;;;;;;;;5030916;28;20474;-72
2022/07/02 01:13:55;;;;;;;17.30;8.35;;;;;;;;;;5047559;28;20086;-72
2022/07/02 01:16:21;;;;;;;16.55;7.95;;;;;;;;;;5047337;28;20040;-71
2022/07/02 01:18:47;;;;;;;21.67;9.15;;;;;;;;;;5046281;28;20029;-71
2022/07/02 01:21:13;;;;;;;21.42;8.88;;;;;;;;;;5048173;28;20033;-70
2022/07/02 01:23:39;;;;;;;19.15;9.52;;;;;;;;;;5047787;28;20032;-72
2022/07/02 01:26:05;;;;;;;20.92;10.15;;;;;;;;;;5014033;28;20494;-72
2022/07/02 01:28:31;;;;;;;22.92;11.32;;;;;;;;;;5036669;28;20052;-71
2022/07/02 01:30:57;;;;;;;24.70;11.88;;;;;;;;;;5039158;28;20037;-71
2022/07/02 01:33:23;;;;;;;26.10;13.02;;;;;;;;;;5042725;28;20065;-71
2022/07/02 01:35:49;;;;;;;21.77;12.20;;;;;;;;;;5036400;28;20116;-71
2022/07/02 01:38:16;;;;;;;20.42;11.35;;;;;;;;;;5044760;28;20022;-71
2022/07/02 01:40:42;;;;;;;27.50;10.00;;;;;;;;;;5048723;28;20022;-71
2022/07/02 01:43:08;;;;;;;25.35;9.15;;;;;;;;;;5029018;28;20370;-72
2022/07/02 01:45:34;;;;;;;18.70;8.23;;;;;;;;;;5049640;28;20045;-71
2022/07/02 01:48:00;;;;;;;16.73;7.60;;;;;;;;;;5046810;28;20071;-73
2022/07/02 01:50:26;;;;;;;20.33;7.13;;;;;;;;;;5030354;28;20117;-72
2022/07/02 01:52:56;;;;;;;19.65;7.07;;;;;;;;;;5047152;28;20116;-72
2022/07/02 01:55:22;;;;;;;17.92;6.13;;;;;;;;;;5027456;28;20033;-71
2022/07/02 01:57:48;;;;;;;18.67;6.28;;;;;;;;;;5044871;28;20455;-71
2022/07/02 02:00:14;;;;;;;11.95;4.38;;;;;;;;;;5048135;28;20090;-70
2022/07/02 02:02:40;;;;;;;12.05;4.13;;;;;;;;;;5044376;28;20253;-72
2022/07/02 02:05:07;;;;;;;9.32;3.60;;;;;;;;;;5048777;28;20093;-72
2022/07/02 02:07:33;;;;;;;9.60;3.40;;;;;;;;;;5025674;28;20403;-71
2022/07/02 02:09:59;;;;;;;8.35;3.53;;;;;;;;;;5030989;28;20104;-72
2022/07/02 02:12:25;;;;;;;6.38;3.50;;;;;;;;;;5032079;28;20491;-71
2022/07/02 02:14:51;;;;;;;10.40;3.25;;;;;;;;;;5052071;28;20474;-71
2022/07/02 02:17:17;;;;;;;11.75;3.53;;;;;;;;;;5049685;28;20154;-71
2022/07/02 02:19:43;;;;;;;10.82;3.50;;;;;;;;;;5033034;28;20029;-72
2022/07/02 02:22:09;;;;;;;12.20;3.88;;;;;;;;;;5042004;28;20131;-71
2022/07/02 02:24:35;;;;;;;8.75;3.70;;;;;;;;;;5049904;28;20104;-70
2022/07/02 02:27:01;;;;;;;11.80;4.00;;;;;;;;;;5036385;28;20186;-70
2022/07/02 02:29:28;;;;;;;10.65;4.30;;;;;;;;;;5016142;28;20044;-70
2022/07/02 02:31:54;;;;;;;12.63;3.92;;;;;;;;;;5050306;28;20037;-72
2022/07/02 02:34:21;;;;;;;9.52;3.40;;;;;;;;;;5024776;28;20044;-70
2022/07/02 02:36:47;;;;;;;10.52;3.90;;;;;;;;;;5050238;28;20041;-70
2022/07/02 02:39:13;;;;;;;22.73;5.68;;;;;;;;;;5015836;28;20032;-69
2022/07/02 02:41:39;;;;;;;10.88;3.88;;;;;;;;;;5047231;28;20033;-71
2022/07/02 02:44:05;;;;;;;11.38;3.53;;;;;;;;;;5033534;28;20115;-71
2022/07/02 02:46:31;;;;;;;10.20;3.50;;;;;;;;;;5051080;28;20048;-71
2022/07/02 02:48:57;;;;;;;6.55;3.50;;;;;;;;;;5036877;28;20129;-71
2022/07/02 02:51:23;;;;;;;11.20;3.63;;;;;;;;;;5045617;28;20037;-71
2022/07/02 02:53:49;;;;;;;9.73;3.60;;;;;;;;;;5049918;28;20094;-71
2022/07/02 02:56:16;;;;;;;9.05;3.40;;;;;;;;;;5050907;28;20112;-70
2022/07/02 02:58:42;;;;;;;11.23;3.55;;;;;;;;;;5047905;28;20443;-71
2022/07/02 03:01:08;;;;;;;11.10;3.45;;;;;;;;;;5049681;28;20037;-70
2022/07/02 03:03:34;;;;;;;8.73;3.20;;;;;;;;;;5031622;28;20057;-71
2022/07/02 03:06:00;;;;;;;14.02;3.58;;;;;;;;;;5050110;28;20496;-71
2022/07/02 03:08:26;;;;;;;10.27;3.10;;;;;;;;;;5046663;28;20025;-71
2022/07/02 03:10:52;;;;;;;7.80;3.53;;;;;;;;;;5049657;28;20394;-70
2022/07/02 03:13:18;;;;;;;12.48;3.50;;;;;;;;;;5012491;28;20509;-70
2022/07/02 03:15:44;;;;;;;8.73;3.00;;;;;;;;;;5031378;28;20041;-71
2022/07/02 03:18:10;;;;;;;9.25;3.15;;;;;;;;;;5041126;28;20028;-71
2022/07/02 03:20:39;;;;;;;6.82;3.00;;;;;;;;;;5050182;28;20029;-70
2022/07/02 03:23:05;;;;;;;9.50;2.90;;;;;;;;;;5013481;28;20037;-70
2022/07/02 03:25:31;;;;;;;7.50;3.00;;;;;;;;;;5050655;28;20037;-70
2022/07/02 03:27:58;;;;;;;8.73;2.78;;;;;;;;;;5047400;28;20033;-71
2022/07/02 03:30:24;;;;;;;10.32;3.47;;;;;;;;;;5048143;28;20110;-70
2022/07/02 03:32:50;;;;;;;5.28;2.63;;;;;;;;;;5045833;28;20032;-70
2022/07/02 03:35:16;;;;;;;10.23;2.80;;;;;;;;;;5050680;28;20117;-71
2022/07/02 03:37:42;;;;;;;8.95;3.00;;;;;;;;;;5048456;28;20666;-70
2022/07/02 03:40:08;;;;;;;9.43;2.65;;;;;;;;;;5034372;28;20048;-71
2022/07/02 03:42:35;;;;;;;12.77;2.95;;;;;;;;;;5023981;28;20462;-71
2022/07/02 03:45:01;;;;;;;10.07;3.10;;;;;;;;;;5051423;28;20049;-71
2022/07/02 03:47:27;;;;;;;9.88;3.20;;;;;;;;;;5047523;28;20688;-71
2022/07/02 03:49:53;;;;;;;7.78;3.28;;;;;;;;;;5033903;28;20496;-71
2022/07/02 03:52:19;;;;;;;11.50;4.55;;;;;;;;;;5050098;28;20029;-71
2022/07/02 03:54:45;;;;;;;10.48;4.00;;;;;;;;;;5028506;28;20032;-71
2022/07/02 03:57:11;;;;;;;17.20;4.55;;;;;;;;;;5048501;28;20048;-71
2022/07/02 03:59:37;;;;;;;8.77;3.58;;;;;;;;;;5036262;28;20026;-70
2022/07/02 04:02:03;;;;;;;8.93;4.63;;;;;;;;;;5017864;28;20462;-71
2022/07/02 04:04:29;;;;;;;9.93;4.53;;;;;;;;;;5050889;28;20094;-71
2022/07/02 04:06:55;;;;;;;13.77;4.75;;;;;;;;;;5050273;28;20035;-70
2022/07/02 04:09:21;;;;;;;8.27;3.70;;;;;;;;;;5032493;28;20056;-71
2022/07/02 04:11:47;;;;;;;10.85;3.58;;;;;;;;;;5048724;28;20052;-71
2022/07/02 04:14:13;;;;;;;12.50;4.15;;;;;;;;;;5030194;28;20119;-71
2022/07/02 04:16:39;;;;;;;14.27;5.75;;;;;;;;;;5049231;28;20503;-69
2022/07/02 04:19:05;;;;;;;9.25;3.97;;;;;;;;;;5029785;28;20045;-71
2022/07/02 04:21:31;;;;;;;9.70;3.95;;;;;;;;;;5049770;28;20100;-71
2022/07/02 04:23:57;;;;;;;9.52;3.95;;;;;;;;;;5047233;28;20175;-72
2022/07/02 04:26:23;;;;;;;15.18;5.32;;;;;;;;;;5031979;28;20551;-71
2022/07/02 04:28:49;;;;;;;14.70;3.90;;;;;;;;;;5027784;28;20057;-71
2022/07/02 04:31:15;;;;;;;6.55;3.42;;;;;;;;;;5049160;28;20114;-69
2022/07/02 04:33:41;;;;;;;8.40;2.85;;;;;;;;;;5024689;28;20036;-69
2022/07/02 04:36:07;;;;;;;10.32;2.65;;;;;;;;;;5049905;28;20033;-71
2022/07/02 04:38:34;;;;;;;9.20;2.47;;;;;;;;;;5048484;28;20397;-70
2022/07/02 04:41:00;;;;;;;6.72;2.20;;;;;;;;;;5050914;28;20511;-71
2022/07/02 04:43:26;;;;;;;9.57;2.55;;;;;;;;;;5027996;28;20558;-71
2022/07/02 04:45:52;;;;;;;3.88;2.10;;;;;;;;;;5058021;28;20095;-70
2022/07/02 04:48:18;;;;;;;9.48;2.40;;;;;;;;;;5065735;28;20032;-71
2022/07/02 04:50:44;;;;;;;13.60;2.88;;;;;;;;;;5069891;28;20078;-70
2022/07/02 04:53:10;;;;;;;10.90;2.33;;;;;;;;;;5067764;28;20038;-71
2022/07/02 04:55:36;;;;;;;9.70;2.70;;;;;;;;;;5069842;28;20100;-68
2022/07/02 04:58:02;;;;;;;8.77;2.35;;;;;;;;;;5061355;28;20051;-70
2022/07/02 05:00:28;;;;;;;6.70;2.10;;;;;;;;;;5065107;28;20022;-69
2022/07/02 05:02:55;;;;;;;6.95;2.00;;;;;;;;;;5065465;28;20234;-70
2022/07/02 05:05:21;;;;;;;7.10;1.98;;;;;;;;;;5069137;28;20021;-70
2022/07/02 05:07:47;;;;;;;8.63;2.30;;;;;;;;;;5066178;28;20025;-69
2022/07/02 05:10:13;;;;;;;7.43;1.83;;;;;;;;;;5069849;28;20045;-69
2022/07/02 05:12:39;;;;;;;4.20;1.92;;;;;;;;;;5062000;28;20028;-70
2022/07/02 05:15:06;;;;;;;6.63;1.77;;;;;;;;;;5069169;28;20044;-68
2022/07/02 05:17:32;;;;;;;5.75;1.70;;;;;;;;;;5067771;28;20040;-70
2022/07/02 05:19:58;;;;;;;6.97;2.22;;;;;;;;;;5069973;28;20550;-69
2022/07/02 05:22:24;;;;;;;6.47;1.73;;;;;;;;;;5067729;28;20139;-67
2022/07/02 05:24:50;;;;;;;7.43;1.90;;;;;;;;;;5065956;28;20152;-67
2022/07/02 05:27:16;;;;;;;6.05;1.95;;;;;;;;;;5067788;28;20435;-70
2022/07/02 05:29:42;;;;;;;9.13;1.98;;;;;;;;;;5067749;28;20036;-69
2022/07/02 05:32:08;;;;;;;4.72;1.45;;;;;;;;;;5058462;28;20043;-69
2022/07/02 05:34:34;;;;;;;9.25;1.90;;;;;;;;;;5067114;28;20109;-68
2022/07/02 05:37:00;;;;;;;9.88;1.85;;;;;;;;;;5067423;28;20036;-68
2022/07/02 05:39:26;;;;;;;4.65;1.77;;;;;;;;;;5065786;28;20020;-70
2022/07/02 05:41:52;;;;;;;6.43;1.98;;;;;;;;;;5050618;28;20493;-67
2022/07/02 05:44:18;;;;;;;4.18;1.40;;;;;;;;;;5059100;28;20028;-70
2022/07/02 05:46:44;;;;;;;7.32;1.80;;;;;;;;;;5032580;28;20036;-68
2022/07/02 05:49:10;;;;;;;7.20;1.88;;;;;;;;;;5046921;28;20029;-68
2022/07/02 05:51:36;;;;;;;5.10;1.77;;;;;;;;;;5035823;28;20039;-69
2022/07/02 05:54:02;;;;;;;6.43;1.88;;;;;;;;;;5051329;28;20029;-69
2022/07/02 05:56:28;;;;;;;6.45;1.88;;;;;;;;;;5053229;28;20032;-69
2022/07/02 05:58:54;;;;;;;7.28;2.00;;;;;;;;;;5031592;28;20117;-70
2022/07/02 06:01:20;;;;;;;8.40;1.80;;;;;;;;;;5027357;28;20032;-70
2022/07/02 06:03:46;;;;;;;11.55;1.95;;;;;;;;;;5052019;28;20087;-68
2022/07/02 06:08:57;;;;;;;5.43;1.80;;;;;;;;;;5050090;28;20231;-70
2022/07/02 06:11:23;;;;;;;6.85;2.05;;;;;;;;;;5032065;28;20095;-70
2022/07/02 06:13:49;;;;;;;8.20;1.58;;;;;;;;;;5032538;28;20040;-69
2022/07/02 06:16:15;;;;;;;6.85;2.15;;;;;;;;;;5033490;28;20036;-70
2022/07/02 06:18:41;;;;;;;7.60;2.10;;;;;;;;;;5050441;28;20514;-69
2022/07/02 06:21:07;;;;;;;5.75;1.77;;;;;;;;;;5052712;28;20484;-70
2022/07/02 06:23:33;;;;;;;5.68;1.60;;;;;;;;;;5027211;28;20025;-71
2022/07/02 06:25:59;;;;;;;6.35;1.90;;;;;;;;;;5052837;28;20386;-70
2022/07/02 06:28:25;;;;;;;6.80;1.92;;;;;;;;;;5047560;28;20035;-70
2022/07/02 06:30:52;;;;;;;4.60;1.70;;;;;;;;;;5051957;28;20028;-71
2022/07/02 06:33:18;;;;;;;5.60;1.90;;;;;;;;;;5046697;28;20028;-70
2022/07/02 06:35:44;;;;;;;5.32;1.60;;;;;;;;;;5050144;28;20116;-69
2022/07/02 06:38:11;;;;;;;5.78;1.88;;;;;;;;;;5037701;28;20036;-69
2022/07/02 06:40:37;;;;;;;4.75;1.40;;;;;;;;;;5045253;28;20482;-69
2022/07/02 06:43:03;;;;;;;7.93;1.75;;;;;;;;;;5024598;28;20037;-70
2022/07/02 06:45:29;;;;;;;5.55;1.55;;;;;;;;;;5057374;28;20095;-70
2022/07/02 06:47:55;;;;;;;4.32;1.45;;;;;;;;;;5067288;28;20069;-68
2022/07/02 06:50:21;;;;;;;6.88;1.33;;;;;;;;;;5070314;28;20512;-69
2022/07/02 06:52:47;;;;;;;3.45;1.10;;;;;;;;;;5068489;28;20086;-69
2022/07/02 06:55:13;;;;;;;7.95;1.23;;;;;;;;;;5066433;28;20477;-69
2022/07/02 06:57:39;;;;;;;3.05;0.98;;;;;;;;;;5062084;28;20458;-70
2022/07/02 07:00:06;;;;;;;3.17;1.00;;;;;;;;;;5080818;28;20025;-70
2022/07/02 07:02:32;;;;;;;4.72;1.05;;;;;;;;;;5069068;28;20025;-68
2022/07/02 07:04:58;;;;;;;6.30;1.02;;;;;;;;;;5071783;28;20029;-68
2022/07/02 07:07:27;;;;;;;4.10;1.08;;;;;;;;;;5067215;28;20036;-69
2022/07/02 07:09:54;;;;;;;3.10;0.85;;;;;;;;;;5070011;28;20048;-68
2022/07/02 07:12:20;;;;;;;5.40;1.02;;;;;;;;;;5061153;28;20032;-68
2022/07/02 07:14:46;;;;;;;3.78;0.93;;;;;;;;;;5064149;28;20115;-69
2022/07/02 07:17:12;;;;;;;3.95;1.00;;;;;;;;;;5068512;28;20040;-69
2022/07/02 07:19:38;;;;;;;2.72;0.80;;;;;;;;;;5051749;28;20028;-69
2022/07/02 07:22:05;;;;;;;4.85;1.27;;;;;;;;;;5060007;28;20175;-69
2022/07/02 07:24:31;;;;;;;5.88;1.30;;;;;;;;;;5070154;28;20056;-69
2022/07/02 07:27:00;;;;;;;3.17;0.77;;;;;;;;;;5053143;28;20129;-71
2022/07/02 07:29:26;;;;;;;8.80;1.70;;;;;;;;;;5070923;28;20056;-69
2022/07/02 07:31:52;;;;;;;3.60;0.75;;;;;;;;;;5069408;28;20063;-69
2022/07/02 07:34:19;;;;;;;1.98;0.98;;;;;;;;;;5069304;28;20028;-68
2022/07/02 07:36:45;;;;;;;6.25;0.93;;;;;;;;;;5069277;28;20043;-69
2022/07/02 07:39:11;;;;;;;6.70;1.17;;;;;;;;;;5068786;28;20031;-70
2022/07/02 07:41:37;;;;;;;5.22;0.82;;;;;;;;;;5068704;28;20494;-70
2022/07/02 07:44:03;;;;;;;3.88;0.75;;;;;;;;;;5068756;28;20033;-69
2022/07/02 07:46:29;;;;;;;7.28;1.00;;;;;;;;;;5048240;28;20089;-68
2022/07/02 07:48:58;;;;;;;3.17;0.88;;;;;;;;;;5014682;28;20047;-68
2022/07/02 07:51:24;;;;;;;3.17;0.70;;;;;;;;;;5030419;28;20041;-67
2022/07/02 07:53:50;;;;;;;2.53;0.70;;;;;;;;;;5041533;28;20155;-69
2022/07/02 07:56:19;;;;;;;3.00;0.77;;;;;;;;;;5045377;28;20033;-68
2022/07/02 07:58:45;;;;;;;3.45;0.57;;;;;;;;;;5023467;28;20131;-69
2022/07/02 08:01:11;;;;;;;2.47;0.70;;;;;;;;;;5038658;28;20025;-70
2022/07/02 08:03:38;;;;;;;3.78;1.00;;;;;;;;;;5049745;28;20040;-70
2022/07/02 08:06:04;;;;;;;4.88;0.93;;;;;;;;;;5049626;28;20108;-69
2022/07/02 08:08:30;;;;;;;1.95;0.65;;;;;;;;;;5047843;28;20028;-71
2022/07/02 08:10:56;;;;;;;2.28;0.52;;;;;;;;;;5050081;28;20198;-70
2022/07/02 08:13:22;;;;;;;4.13;0.88;;;;;;;;;;5049816;28;20449;-69
2022/07/02 08:15:48;;;;;;;5.38;1.10;;;;;;;;;;5050172;28;20040;-70
2022/07/02 08:18:14;;;;;;;4.88;0.98;;;;;;;;;;5045745;28;20132;-69
2022/07/02 08:20:40;;;;;;;4.07;1.00;;;;;;;;;;5048662;28;20021;-70
2022/07/02 08:23:06;;;;;;;3.00;0.77;;;;;;;;;;5042285;28;20142;-70
2022/07/02 08:25:32;;;;;;;2.05;0.60;;;;;;;;;;5047831;28;20025;-69
2022/07/02 08:27:59;;;;;;;4.22;0.85;;;;;;;;;;5031277;28;20029;-69
2022/07/02 08:30:25;;;;;;;4.80;0.80;;;;;;;;;;5032347;28;20046;-69
2022/07/02 08:32:51;;;;;;;2.17;0.60;;;;;;;;;;5044499;28;20029;-71
2022/07/02 08:35:17;;;;;;;1.88;0.50;;;;;;;;;;5045707;28;20033;-68
2022/07/02 08:37:43;;;;;;;3.83;1.30;;;;;;;;;;5035437;28;20059;-69
2022/07/02 08:40:10;;;;;;;4.13;0.90;;;;;;;;;;5045962;28;20043;-69
2022/07/02 08:42:40;;;;;;;1.88;0.63;;;;;;;;;;5036873;28;20090;-69
2022/07/02 08:45:06;;;;;;;1.55;0.50;;;;;;;;;;5048867;28;20045;-69
2022/07/02 08:47:34;;;;;;;1.77;0.75;;;;;;;;;;5045181;28;20053;-70
2022/07/02 08:50:00;;;;;;;2.47;0.40;;;;;;;;;;5031280;28;20041;-69
2022/07/02 08:52:28;;;;;;;5.13;0.77;;;;;;;;;;5031145;28;20040;-69
2022/07/02 08:54:54;;;;;;;2.40;0.75;;;;;;;;;;5032019;28;20037;-69
2022/07/02 08:57:21;;;;;;;2.08;0.60;;;;;;;;;;5045030;28;20127;-69
2022/07/02 08:59:47;;;;;;;2.08;0.60;;;;;;;;;;5042223;28;20021;-70
2022/07/02 09:02:14;;;;;;;2.92;0.90;;;;;;;;;;5041415;28;20045;-69
2022/07/02 09:04:42;;;;;;;1.92;0.70;;;;;;;;;;5049146;28;20021;-69
2022/07/02 09:07:10;;;;;;;3.35;0.77;;;;;;;;;;5043714;28;20033;-69
2022/07/02 09:09:36;;;;;;;4.10;0.80;;;;;;;;;;5029991;28;20059;-69
2022/07/02 09:12:03;;;;;;;1.85;0.70;;;;;;;;;;5047727;28;20502;-69
2022/07/02 09:14:32;;;;;;;3.80;0.95;;;;;;;;;;5018627;28;20060;-69
2022/07/02 09:16:58;;;;;;;2.00;0.70;;;;;;;;;;5028060;28;20449;-70
2022/07/02 09:19:26;;;;;;;6.03;0.93;;;;;;;;;;5018317;28;20715;-70
2022/07/02 09:21:52;;;;;;;1.92;0.70;;;;;;;;;;5048121;28;20580;-70
2022/07/02 09:24:35;;;;;;;4.97;0.77;;;;;;;;;;5045365;28;20037;-70
2022/07/02 09:27:04;;;;;;;2.42;0.60;;;;;;;;;;5047290;28;20094;-70
2022/07/02 09:29:40;;;;;;;1.98;0.70;;;;;;;;;;5047731;28;20029;-70
2022/07/02 09:32:06;;;;;;;2.38;0.50;;;;;;;;;;5044449;28;20024;-70
2022/07/02 09:34:32;;;;;;;2.30;0.50;;;;;;;;;;5045878;28;20128;-70
2022/07/02 09:36:58;;;;;;;4.07;0.68;;;;;;;;;;5037800;28;20036;-71
2022/07/02 09:39:31;;;;;;;2.50;0.70;;;;;;;;;;5029530;28;20410;-71
2022/07/02 09:41:58;;;;;;;4.40;0.70;;;;;;;;;;5042705;28;20449;-70
2022/07/02 09:44:26;;;;;;;1.85;0.57;;;;;;;;;;5034554;28;20446;-70
2022/07/02 09:46:52;;;;;;;2.90;0.60;;;;;;;;;;5047618;28;20087;-69
2022/07/02 09:49:18;;;;;;;3.45;0.77;;;;;;;;;;5048462;28;20133;-69
2022/07/02 09:51:51;;;;;;;4.35;0.63;;;;;;;;;;5045255;28;20082;-69
2022/07/02 09:54:24;;;;;;;3.15;0.68;;;;;;;;;;5040384;28;20148;-70
2022/07/02 09:56:57;;;;;;;4.32;0.55;;;;;;;;;;5030394;28;20516;-69
2022/07/02 09:59:23;;;;;;;3.05;0.50;;;;;;;;;;5027775;28;20514;-69
2022/07/02 10:01:49;;;;;;;1.65;0.40;;;;;;;;;;5039358;28;20032;-68
2022/07/02 10:04:16;;;;;;;4.05;0.70;;;;;;;;;;5030560;28;20065;-69
2022/07/02 10:06:43;;;;;;;4.80;0.75;;;;;;;;;;5041489;28;20051;-69
2022/07/02 10:09:11;;;;;;;5.75;0.90;;;;;;;;;;5039050;28;20033;-69
2022/07/02 10:11:37;;;;;;;4.30;0.73;;;;;;;;;;5048063;28;20387;-69
2022/07/02 10:14:04;;;;;;;4.38;0.73;;;;;;;;;;5046441;28;20029;-69
2022/07/02 10:16:30;;;;;;;2.58;0.57;;;;;;;;;;5048022;28;20448;-69
2022/07/02 10:18:59;;;;;;;2.90;0.60;;;;;;;;;;5042842;28;20041;-69
2022/07/02 10:21:25;;;;;;;2.22;0.93;;;;;;;;;;5046187;28;20049;-70
2022/07/02 10:23:51;;;;;;;4.18;0.63;;;;;;;;;;5040806;28;20052;-71
2022/07/02 10:26:18;;;;;;;2.05;0.60;;;;;;;;;;5043333;28;20117;-70
2022/07/02 10:28:44;;;;;;;2.13;0.77;;;;;;;;;;5026965;28;20305;-69
2022/07/02 10:31:19;;;;;;;1.70;0.60;;;;;;;;;;5045622;28;20108;-70
2022/07/02 10:33:55;;;;;;;3.50;0.65;;;;;;;;;;5039490;28;20509;-70
2022/07/02 10:36:21;;;;;;;4.32;0.82;;;;;;;;;;5049018;28;20025;-69
2022/07/02 10:38:56;;;;;;;2.45;0.90;;;;;;;;;;5048736;28;20260;-70
2022/07/02 10:41:29;;;;;;;3.05;0.70;;;;;;;;;;5039683;28;20451;-71
2022/07/02 10:43:56;;;;;;;3.92;0.70;;;;;;;;;;5044186;28;20490;-70
2022/07/02 10:46:24;;;;;;;9.57;1.10;;;;;;;;;;5052121;28;20077;-71
2022/07/02 10:48:51;;;;;;;4.18;0.98;;;;;;;;;;5050109;28;20037;-68
2022/07/02 10:51:24;;;;;;;3.60;0.90;;;;;;;;;;5036729;28;20038;-69
2022/07/02 10:53:51;;;;;;;2.28;0.82;;;;;;;;;;5042795;28;20029;-68
2022/07/02 10:56:17;;;;;;;5.22;0.85;;;;;;;;;;5039864;28;20041;-70
2022/07/02 10:58:43;;;;;;;4.07;0.90;;;;;;;;;;5043996;28;20420;-69
2022/07/02 11:01:09;;;;;;;5.45;0.90;;;;;;;;;;5024362;28;20562;-69
2022/07/02 11:03:35;;;;;;;5.45;1.10;;;;;;;;;;5046016;28;20104;-69
2022/07/02 11:06:20;;;;;;;1.92;0.70;;;;;;;;;;5051382;28;20450;-69
2022/07/02 11:08:56;;;;;;;6.68;1.27;;;;;;;;;;5050931;28;20059;-69
2022/07/02 11:11:40;;;;;;;3.50;1.00;;;;;;;;;;5038387;28;20132;-69
2022/07/02 11:14:10;;;;;;;5.20;1.40;;;;;;;;;;5033018;28;20034;-70
2022/07/02 11:16:42;;;;;;;4.88;0.82;;;;;;;;;;5031425;28;20021;-70
2022/07/02 11:19:17;;;;;;;6.88;1.73;;;;;;;;;;5035393;28;20055;-70
2022/07/02 11:21:43;;;;;;;3.20;0.93;;;;;;;;;;5050513;28;20140;-69
2022/07/02 11:24:12;;;;;;;5.38;1.02;;;;;;;;;;5050622;28;20065;-69
2022/07/02 11:26:41;;;;;;;4.15;1.05;;;;;;;;;;5051170;28;20505;-68
2022/07/02 11:29:07;;;;;;;4.57;1.10;;;;;;;;;;5048308;28;20033;-69
2022/07/02 11:31:37;;;;;;;7.00;1.40;;;;;;;;;;5046611;28;20037;-68
2022/07/02 11:34:03;;;;;;;4.35;1.20;;;;;;;;;;5051149;28;20115;-69
2022/07/02 11:36:30;;;;;;;4.43;1.13;;;;;;;;;;5051413;28;20064;-69
2022/07/02 11:38:56;;;;;;;5.85;1.30;;;;;;;;;;5045348;28;20025;-69
2022/07/02 11:41:24;;;;;;;5.22;1.30;;;;;;;;;;5044446;28;20079;-70
2022/07/02 11:43:57;;;;;;;7.78;1.20;;;;;;;;;;5049885;28;20037;-70
2022/07/02 11:46:27;;;;;;;2.75;1.13;;;;;;;;;;5056050;28;20059;-71
2022/07/02 11:48:54;;;;;;;3.58;0.95;;;;;;;;;;5067504;28;20119;-70
2022/07/02 11:51:20;;;;;;;6.50;1.40;;;;;;;;;;5058484;28;20104;-70
2022/07/02 11:53:59;;;;;;;6.47;1.00;;;;;;;;;;5062175;28;20393;-70
2022/07/02 11:56:25;;;;;;;3.50;1.10;;;;;;;;;;5057254;28;20040;-70
2022/07/02 11:58:52;;;;;;;5.00;1.17;;;;;;;;;;5067417;28;20042;-71
2022/07/02 12:01:18;;;;;;;12.65;3.97;;;;;;;;;;5059074;28;20090;-71
2022/07/02 12:03:45;;;;;;;6.20;1.50;;;;;;;;;;5067680;28;20021;-70
2022/07/02 12:06:11;;;;;;;10.15;3.45;;;;;;;;;;5062980;28;20518;-70
2022/07/02 12:08:37;;;;;;;9.07;1.33;;;;;;;;;;5063355;28;20135;-69
2022/07/02 12:11:17;;;;;;;7.30;1.40;;;;;;;;;;5061619;28;20128;-69
2022/07/02 12:13:43;;;;;;;7.40;1.33;;;;;;;;;;5066398;28;20482;-71
2022/07/02 12:16:11;;;;;;;3.30;0.98;;;;;;;;;;5065066;28;20505;-71
2022/07/02 12:18:37;;;;;;;5.97;1.08;;;;;;;;;;5067898;28;20562;-70
2022/07/02 12:21:13;;;;;;;3.75;0.98;;;;;;;;;;5066140;28;20036;-70
2022/07/02 12:23:46;;;;;;;4.45;1.40;;;;;;;;;;5064509;28;20082;-71
2022/07/02 12:26:19;;;;;;;6.88;1.40;;;;;;;;;;5063111;28;20037;-71
2022/07/02 12:32:00;;;;;;;7.38;1.50;;;;;;;;;;5060036;28;20606;-71
2022/07/02 12:34:36;;;;;;;4.03;1.10;;;;;;;;;;5062070;28;20036;-73
2022/07/02 12:37:02;;;;;;;5.13;1.25;;;;;;;;;;5068492;28;20032;-71
2022/07/02 12:39:39;;;;;;;5.95;1.10;;;;;;;;;;5070405;28;20037;-69
2022/07/02 12:42:13;;;;;;;7.07;1.13;;;;;;;;;;5068152;28;20032;-72
2022/07/02 12:44:49;;;;;;;6.40;1.30;;;;;;;;;;5066936;28;20037;-71
2022/07/02 12:47:22;;;;;;;3.63;0.93;;;;;;;;;;5050667;28;20032;-72
2022/07/02 12:49:52;;;;;;;4.78;1.00;;;;;;;;;;5052163;28;20021;-70
2022/07/02 12:52:19;;;;;;;5.78;1.30;;;;;;;;;;5032739;28;20154;-71
2022/07/02 12:54:45;;;;;;;6.75;0.93;;;;;;;;;;5050097;28;20044;-70
2022/07/02 12:57:15;;;;;;;2.90;0.75;;;;;;;;;;5051898;28;20043;-70
2022/07/02 12:59:41;;;;;;;5.22;0.98;;;;;;;;;;5051273;28;20025;-70
2022/07/02 13:02:09;;;;;;;5.60;0.90;;;;;;;;;;5049961;28;20051;-72
2022/07/02 13:04:35;;;;;;;5.78;1.40;;;;;;;;;;5050700;28;20036;-70
2022/07/02 13:07:01;;;;;;;7.47;1.00;;;;;;;;;;5049093;28;20033;-72
2022/07/02 13:09:27;;;;;;;4.75;1.20;;;;;;;;;;5038717;28;20378;-70
2022/07/02 13:11:53;;;;;;;3.95;0.85;;;;;;;;;;5031563;28;20391;-71
2022/07/02 13:14:19;;;;;;;4.75;1.02;;;;;;;;;;5041966;28;20033;-71
2022/07/02 13:16:45;;;;;;;3.33;0.80;;;;;;;;;;5044608;28;20029;-72
2022/07/02 13:19:11;;;;;;;6.32;1.05;;;;;;;;;;5039688;28;20036;-71
2022/07/02 13:21:37;;;;;;;4.70;1.05;;;;;;;;;;5046922;28;20103;-71
2022/07/02 13:24:03;;;;;;;3.45;0.95;;;;;;;;;;5047470;28;20158;-71
2022/07/02 13:26:30;;;;;;;7.32;1.15;;;;;;;;;;5005714;28;20486;-71
2022/07/02 13:28:56;;;;;;;3.35;1.30;;;;;;;;;;5018293;28;20056;-71
2022/07/02 13:31:22;;;;;;;4.40;1.10;;;;;;;;;;5048999;28;20069;-72
2022/07/02 13:33:48;;;;;;;5.38;1.23;;;;;;;;;;5031198;28;20057;-72
2022/07/02 13:36:14;;;;;;;3.95;0.90;;;;;;;;;;5043889;28;20045;-71
2022/07/02 13:38:40;;;;;;;5.88;0.73;;;;;;;;;;5034369;28;20040;-72
2022/07/02 13:41:06;;;;;;;3.97;1.10;;;;;;;;;;5049527;28;20029;-71
2022/07/02 13:43:32;;;;;;;3.15;0.90;;;;;;;;;;5049232;28;20458;-71
2022/07/02 13:45:58;;;;;;;4.47;1.02;;;;;;;;;;5049264;28;20130;-69
2022/07/02 13:48:24;;;;;;;2.90;1.13;;;;;;;;;;5048298;28;20028;-70
2022/07/02 13:50:50;;;;;;;3.05;0.93;;;;;;;;;;5047596;28;20064;-70
2022/07/02 13:53:16;;;;;;;4.45;1.30;;;;;;;;;;5048151;28;20021;-71
2022/07/02 13:55:42;;;;;;;7.32;1.10;;;;;;;;;;5015019;28;20029;-70
2022/07/02 13:58:08;;;;;;;5.93;0.90;;;;;;;;;;5047711;28;20102;-70
2022/07/02 14:00:34;;;;;;;6.88;1.20;;;;;;;;;;5047841;28;20112;-70
2022/07/02 14:03:00;;;;;;;2.80;1.10;;;;;;;;;;5023145;28;20022;-71
2022/07/02 14:05:26;;;;;;;5.05;1.10;;;;;;;;;;5029427;28;20623;-70
2022/07/02 14:07:52;;;;;;;4.35;0.80;;;;;;;;;;5032163;28;20055;-71
2022/07/02 14:10:18;;;;;;;2.45;0.90;;;;;;;;;;5050824;28;20025;-69
2022/07/02 14:12:44;;;;;;;1.80;0.95;;;;;;;;;;5053522;28;20035;-70
2022/07/02 14:15:11;;;;;;;4.57;1.05;;;;;;;;;;5049398;28;20033;-70
2022/07/02 14:17:37;;;;;;;3.83;0.90;;;;;;;;;;5043625;28;20033;-71
2022/07/02 14:20:03;;;;;;;4.20;1.30;;;;;;;;;;5043101;28;20116;-70
2022/07/02 14:22:30;;;;;;;2.75;1.00;;;;;;;;;;5042711;28;20249;-69
2022/07/02 14:24:56;;;;;;;4.65;1.10;;;;;;;;;;5043235;28;20512;-70
2022/07/02 14:27:22;;;;;;;9.45;1.30;;;;;;;;;;5044115;28;20104;-72
2022/07/02 14:29:48;;;;;;;3.90;0.90;;;;;;;;;;5023662;28;20057;-71
2022/07/02 14:32:14;;;;;;;3.22;1.10;;;;;;;;;;5025159;28;20032;-70
2022/07/02 14:34:40;;;;;;;3.30;1.15;;;;;;;;;;5040697;28;20099;-71
2022/07/02 14:37:06;;;;;;;8.10;1.10;;;;;;;;;;5042329;28;20132;-70
2022/07/02 14:39:33;;;;;;;3.08;1.10;;;;;;;;;;5024387;28;20064;-70
2022/07/02 14:42:00;;;;;;;5.85;1.08;;;;;;;;;;5042539;28;20125;-70
2022/07/02 14:44:26;;;;;;;3.15;1.10;;;;;;;;;;5020762;28;20060;-70
2022/07/02 14:46:52;;;;;;;4.03;1.25;;;;;;;;;;5058212;28;20044;-70
2022/07/02 14:49:18;;;;;;;4.65;1.42;;;;;;;;;;5061731;28;20119;-70